Texas Enterprise — KSDF — position and weather

sailwx.info

Track history (hours):
 
Tides and Currents Weather Stations Pressure Air Temp Water Temp Dewpoint Dewpoint Depression Visibility Wind Speed Wind Dir Waves Ship Positions

Texas Enterprise

Owner: U.S. United Ocean Services, LLC, Tampa, FL. More information available from US FCC via Universal Licensing System and Coast Guard Vessel Documentation Center.

Last reported at 2017-Feb-16 13:10 UTC. Time now 2017-Feb-21 01:26 UTC.
Position N 31°01' W 016°53'.

Type: Cargo ship. MMSI: 366163000.

Date/timePositionNaut miles runAvg speedWind from/ knotsBaromVisibWave heightAir tempDewpointWater temp
2017-Feb-16 13:10N 31°01' W 016°53'1214.9
2017-Feb-16 12:23N 31°06' W 016°41'2715.0
2017-Feb-16 10:33N 31°20' W 016°13'57815.1
2017-Feb-14 20:12N 35°57' W 006°04'913.9
2017-Feb-14 19:31N 35°57' W 005°52'1413.6
2017-Feb-14 18:31N 35°57' W 005°35'1111.7
2017-Feb-14 17:33N 35°56' W 005°21'1 1.5
2017-Feb-14 16:34N 35°55' W 005°20'0 0.1
2017-Feb-14 15:31N 35°55' W 005°21'0 0.0
2017-Feb-14 14:30N 35°55' W 005°21'0 0.0
2017-Feb-14 13:34N 35°55' W 005°21'0 0.0
2017-Feb-14 12:31N 35°55' W 005°21'0 0.1
2017-Feb-14 11:33N 35°55' W 005°21'0 0.0
2017-Feb-14 10:34N 35°55' W 005°21'0 0.0
2017-Feb-14 09:33N 35°55' W 005°21'4 4.1
2017-Feb-14 08:34N 35°56' W 005°16'44914.0
2017-Feb-13 00:34N 37°18' E 003°54'6115.1
2017-Feb-12 20:33N 37°25' E 005°10'42414.6
2017-Feb-11 15:31N 36°29' E 013°55'1515.5
2017-Feb-11 14:33N 36°23' E 014°13'1515.5
2017-Feb-11 13:33N 36°18' E 014°31'1615.4
2017-Feb-11 12:33N 36°14' E 014°49'  
Track history (hours):
 
Tides and Currents Weather Stations Pressure Air Temp Water Temp Dewpoint Dewpoint Depression Visibility Wind Speed Wind Dir Waves Ship Positions

Texas Enterprise

Owner: U.S. United Ocean Services, LLC, Tampa, FL. More information available from US FCC via Universal Licensing System and Coast Guard Vessel Documentation Center.

Last reported at 2017-Feb-16 13:10 UTC. Time now 2017-Feb-21 01:26 UTC.
Position N 31°01' W 016°53'.

Type: Cargo ship. MMSI: 366163000.

Date/timePositionNaut miles runAvg speedWind from/ knotsBaromVisibWave heightAir tempDewpointWater temp
2017-Feb-16 13:10N 31°01' W 016°53'1214.9
2017-Feb-16 12:23N 31°06' W 016°41'2715.0
2017-Feb-16 10:33N 31°20' W 016°13'57815.1
2017-Feb-14 20:12N 35°57' W 006°04'913.9
2017-Feb-14 19:31N 35°57' W 005°52'1413.6
2017-Feb-14 18:31N 35°57' W 005°35'1111.7
2017-Feb-14 17:33N 35°56' W 005°21'1 1.5
2017-Feb-14 16:34N 35°55' W 005°20'0 0.1
2017-Feb-14 15:31N 35°55' W 005°21'0 0.0
2017-Feb-14 14:30N 35°55' W 005°21'0 0.0
2017-Feb-14 13:34N 35°55' W 005°21'0 0.0
2017-Feb-14 12:31N 35°55' W 005°21'0 0.1
2017-Feb-14 11:33N 35°55' W 005°21'0 0.0
2017-Feb-14 10:34N 35°55' W 005°21'0 0.0
2017-Feb-14 09:33N 35°55' W 005°21'4 4.1
2017-Feb-14 08:34N 35°56' W 005°16'44914.0
2017-Feb-13 00:34N 37°18' E 003°54'6115.1
2017-Feb-12 20:33N 37°25' E 005°10'42414.6
2017-Feb-11 15:31N 36°29' E 013°55'1515.5
2017-Feb-11 14:33N 36°23' E 014°13'1515.5
2017-Feb-11 13:33N 36°18' E 014°31'1615.4
2017-Feb-11 12:33N 36°14' E 014°49'  

Dump ship's entire track history